createdAt,value
2017-10-09T00:00:43.470Z,1006.04
2017-10-09T00:01:43.451Z,1006.03
2017-10-09T00:02:43.449Z,1006.04
2017-10-09T00:03:43.440Z,1006.04
2017-10-09T00:04:43.419Z,1006.02
2017-10-09T00:05:43.642Z,1006.03
2017-10-09T00:06:43.400Z,1005.99
2017-10-09T00:07:43.406Z,1006.03
2017-10-09T00:08:43.392Z,1006.04
2017-10-09T00:09:43.389Z,1006.00
2017-10-09T00:10:43.429Z,1005.98
2017-10-09T00:11:43.371Z,1006.03
2017-10-09T00:12:43.342Z,1005.99
2017-10-09T00:13:43.335Z,1005.98
2017-10-09T00:14:43.338Z,1006.00
2017-10-09T00:15:43.325Z,1005.99
2017-10-09T00:16:43.464Z,1005.97
2017-10-09T00:17:43.302Z,1005.98
2017-10-09T00:18:43.290Z,1005.99
2017-10-09T00:19:43.285Z,1005.97
2017-10-09T00:20:43.269Z,1005.97
2017-10-09T00:21:43.264Z,1005.92
2017-10-09T00:22:43.400Z,1005.96
2017-10-09T00:23:43.262Z,1005.95
2017-10-09T00:24:43.248Z,1005.95
2017-10-09T00:25:43.236Z,1005.92
2017-10-09T00:26:43.235Z,1005.96
2017-10-09T00:27:43.210Z,1005.95
2017-10-09T00:28:43.526Z,1005.95
2017-10-09T00:29:43.203Z,1005.98
2017-10-09T00:30:43.190Z,1005.97
2017-10-09T00:31:43.173Z,1005.95
2017-10-09T00:32:43.161Z,1005.91
2017-10-09T00:33:43.153Z,1005.89
2017-10-09T00:34:43.535Z,1005.92
2017-10-09T00:35:43.135Z,1005.88
2017-10-09T00:36:43.137Z,1005.90
2017-10-09T00:37:43.130Z,1005.91
2017-10-09T00:38:43.110Z,1005.87
2017-10-09T00:39:43.113Z,1005.87
2017-10-09T00:40:43.535Z,1005.89
2017-10-09T00:41:43.092Z,1005.91
2017-10-09T00:42:43.082Z,1005.89
2017-10-09T00:43:43.077Z,1005.92
2017-10-09T00:44:43.074Z,1005.92
2017-10-09T00:45:43.042Z,1005.92
2017-10-09T00:46:43.426Z,1005.94
2017-10-09T00:47:43.026Z,1005.91
2017-10-09T00:48:43.033Z,1005.90
2017-10-09T00:49:43.008Z,1005.91
2017-10-09T00:50:43.003Z,1005.90
2017-10-09T00:51:42.988Z,1005.92
2017-10-09T00:52:43.021Z,1005.89
2017-10-09T00:53:42.987Z,1005.89
2017-10-09T00:54:42.968Z,1005.89
2017-10-09T00:55:42.956Z,1005.93
2017-10-09T00:56:42.976Z,1005.88
2017-10-09T00:57:42.943Z,1005.89
2017-10-09T00:58:42.924Z,1005.89
2017-10-09T00:59:42.917Z,1005.91
2017-10-09T01:00:42.911Z,1005.89
2017-10-09T01:01:42.953Z,1005.89
2017-10-09T01:02:42.902Z,1005.95
2017-10-09T01:03:42.897Z,1005.93
2017-10-09T01:04:42.884Z,1005.92
2017-10-09T01:05:42.878Z,1005.92
2017-10-09T01:06:42.865Z,1005.94
2017-10-09T01:07:42.992Z,1005.93
2017-10-09T01:08:42.845Z,1005.95
2017-10-09T01:09:42.829Z,1005.94
2017-10-09T01:10:42.830Z,1005.89
2017-10-09T01:11:42.821Z,1005.92
2017-10-09T01:12:42.805Z,1005.89
2017-10-09T01:13:42.845Z,1005.92
2017-10-09T01:14:42.786Z,1005.93
2017-10-09T01:15:42.776Z,1005.90
2017-10-09T01:16:42.774Z,1005.96
2017-10-09T01:17:42.756Z,1005.94
2017-10-09T01:18:42.742Z,1005.92
2017-10-09T01:19:42.765Z,1005.94
2017-10-09T01:20:42.742Z,1005.94
2017-10-09T01:21:42.729Z,1005.94
2017-10-09T01:22:42.719Z,1005.96
2017-10-09T01:23:42.743Z,1005.94
2017-10-09T01:24:42.703Z,1005.94
2017-10-09T01:25:42.693Z,1005.95
2017-10-09T01:26:42.669Z,1005.93
2017-10-09T01:27:42.677Z,1005.94
2017-10-09T01:28:42.723Z,1005.95
2017-10-09T01:29:42.654Z,1005.95
2017-10-09T01:30:42.640Z,1005.91
2017-10-09T01:31:42.641Z,1005.94
2017-10-09T01:32:42.628Z,1005.94
2017-10-09T01:33:42.612Z,1005.94
2017-10-09T01:34:42.642Z,1005.93
2017-10-09T01:35:42.599Z,1005.94
2017-10-09T01:36:42.593Z,1005.92
2017-10-09T01:37:42.586Z,1005.96
2017-10-09T01:38:42.921Z,1005.95
2017-10-09T01:39:42.567Z,1005.92
2017-10-09T01:40:42.543Z,1005.91
2017-10-09T01:41:42.545Z,1005.93
2017-10-09T01:42:42.539Z,1005.89
2017-10-09T01:43:42.516Z,1005.88
2017-10-09T01:44:42.940Z,1005.89
2017-10-09T01:45:42.500Z,1005.90
2017-10-09T01:46:42.494Z,1005.83
2017-10-09T01:47:42.480Z,1005.82
2017-10-09T01:48:42.482Z,1005.80
2017-10-09T01:49:42.469Z,1005.83
2017-10-09T01:50:42.818Z,1005.81
2017-10-09T01:51:42.454Z,1005.83
2017-10-09T01:52:42.433Z,1005.80
2017-10-09T01:53:42.442Z,1005.80
2017-10-09T01:54:42.421Z,1005.81
2017-10-09T01:55:42.407Z,1005.79
2017-10-09T01:56:42.435Z,1005.77
2017-10-09T01:57:42.406Z,1005.82
2017-10-09T01:58:42.771Z,1005.80
2017-10-09T01:59:42.380Z,1005.79
2017-10-09T02:00:42.362Z,1005.80
2017-10-09T02:01:42.365Z,1005.79
2017-10-09T02:02:42.341Z,1005.79
2017-10-09T02:03:42.334Z,1005.80
2017-10-09T02:04:42.345Z,1005.82
2017-10-09T02:05:42.316Z,1005.78
2017-10-09T02:06:42.312Z,1005.80
2017-10-09T02:07:42.304Z,1005.76
2017-10-09T02:08:42.596Z,1005.81
2017-10-09T02:09:42.290Z,1005.79
2017-10-09T02:10:42.271Z,1005.81
2017-10-09T02:11:42.271Z,1005.80
2017-10-09T02:12:42.250Z,1005.84
2017-10-09T02:13:42.257Z,1005.77
2017-10-09T02:14:42.543Z,1005.79
2017-10-09T02:15:42.223Z,1005.78
2017-10-09T02:16:42.221Z,1005.83
2017-10-09T02:17:42.204Z,1005.83
2017-10-09T02:18:42.208Z,1005.81
2017-10-09T02:19:42.194Z,1005.82
2017-10-09T02:20:42.521Z,1005.82
2017-10-09T02:21:42.166Z,1005.83
2017-10-09T02:22:42.163Z,1005.83
2017-10-09T02:23:42.167Z,1005.83
2017-10-09T02:24:42.150Z,1005.82
2017-10-09T02:25:42.141Z,1005.84
2017-10-09T02:26:42.183Z,1005.86
2017-10-09T02:27:42.122Z,1005.86
2017-10-09T02:28:42.116Z,1005.82
2017-10-09T02:29:42.092Z,1005.79
2017-10-09T02:30:42.086Z,1005.81
2017-10-09T02:31:42.092Z,1005.83
2017-10-09T02:32:42.417Z,1005.82
2017-10-09T02:33:42.057Z,1005.81
2017-10-09T02:34:42.050Z,1005.81
2017-10-09T02:35:42.049Z,1005.80
2017-10-09T02:36:42.029Z,1005.82
2017-10-09T02:37:42.026Z,1005.83
2017-10-09T02:38:42.069Z,1005.81
2017-10-09T02:39:42.012Z,1005.85
2017-10-09T02:40:42.009Z,1005.84
2017-10-09T02:41:41.979Z,1005.87
2017-10-09T02:42:41.988Z,1005.88
2017-10-09T02:43:41.973Z,1005.89
2017-10-09T02:44:42.224Z,1005.89
2017-10-09T02:45:41.951Z,1005.89
2017-10-09T02:46:41.941Z,1005.91
2017-10-09T02:47:41.944Z,1005.87
2017-10-09T02:48:41.921Z,1005.89
2017-10-09T02:49:41.924Z,1005.89
2017-10-09T02:50:42.209Z,1005.88
2017-10-09T02:51:41.892Z,1005.86
2017-10-09T02:52:41.891Z,1005.90
2017-10-09T02:53:41.894Z,1005.88
2017-10-09T02:54:41.862Z,1005.86
2017-10-09T02:55:41.858Z,1005.87
2017-10-09T02:56:42.274Z,1005.87
2017-10-09T02:57:41.853Z,1005.87
2017-10-09T02:58:41.839Z,1005.92
2017-10-09T02:59:41.823Z,1005.91
2017-10-09T03:00:41.807Z,1005.87
2017-10-09T03:01:41.814Z,1005.91
2017-10-09T03:02:42.219Z,1005.89
2017-10-09T03:03:41.792Z,1005.84
2017-10-09T03:04:41.772Z,1005.84
2017-10-09T03:05:41.763Z,1005.85
2017-10-09T03:06:41.751Z,1005.86
2017-10-09T03:07:41.758Z,1005.84
2017-10-09T03:08:42.107Z,1005.80
2017-10-09T03:09:41.737Z,1005.80
2017-10-09T03:10:41.724Z,1005.80
2017-10-09T03:11:41.725Z,1005.77
2017-10-09T03:12:41.710Z,1005.80
2017-10-09T03:13:41.687Z,1005.80
2017-10-09T03:14:42.132Z,1005.80
2017-10-09T03:15:41.667Z,1005.80
2017-10-09T03:16:41.667Z,1005.78
2017-10-09T03:17:41.664Z,1005.81
2017-10-09T03:18:41.659Z,1005.80
2017-10-09T03:19:41.643Z,1005.82
2017-10-09T03:20:41.944Z,1005.80
2017-10-09T03:21:41.613Z,1005.78
2017-10-09T03:22:41.617Z,1005.79
2017-10-09T03:23:41.595Z,1005.84
2017-10-09T03:24:41.601Z,1005.79
2017-10-09T03:25:41.580Z,1005.82
2017-10-09T03:26:41.941Z,1005.81
2017-10-09T03:27:41.571Z,1005.79
2017-10-09T03:28:41.567Z,1005.81
2017-10-09T03:29:41.538Z,1005.81
2017-10-09T03:30:41.546Z,1005.82
2017-10-09T03:31:41.520Z,1005.80
2017-10-09T03:32:41.951Z,1005.78
2017-10-09T03:33:41.511Z,1005.76
2017-10-09T03:34:41.499Z,1005.78
2017-10-09T03:35:41.497Z,1005.79
2017-10-09T03:36:41.491Z,1005.78
2017-10-09T03:37:41.469Z,1005.79
2017-10-09T03:38:41.961Z,1005.76
2017-10-09T03:39:41.449Z,1005.79
2017-10-09T03:40:41.455Z,1005.77
2017-10-09T03:41:41.432Z,1005.82
2017-10-09T03:42:41.433Z,1005.79
2017-10-09T03:43:41.425Z,1005.80
2017-10-09T03:44:41.428Z,1005.77
2017-10-09T03:45:41.409Z,1005.78
2017-10-09T03:46:41.387Z,1005.77
2017-10-09T03:47:41.380Z,1005.75
2017-10-09T03:48:41.382Z,1005.77
2017-10-09T03:49:41.718Z,1005.79
2017-10-09T03:50:41.346Z,1005.77
2017-10-09T03:51:41.341Z,1005.78
2017-10-09T03:52:41.326Z,1005.80
2017-10-09T03:53:41.321Z,1005.78
2017-10-09T03:54:41.320Z,1005.82
2017-10-09T03:55:41.647Z,1005.79
2017-10-09T03:56:41.291Z,1005.81
2017-10-09T03:57:41.306Z,1005.81
2017-10-09T03:58:41.280Z,1005.82
2017-10-09T03:59:41.265Z,1005.81
2017-10-09T04:00:41.252Z,1005.79
2017-10-09T04:01:41.565Z,1005.82
2017-10-09T04:02:41.236Z,1005.79
2017-10-09T04:03:41.226Z,1005.78
2017-10-09T04:04:41.230Z,1005.80
2017-10-09T04:05:41.208Z,1005.82
2017-10-09T04:06:41.222Z,1005.82
2017-10-09T04:07:41.493Z,1005.76
2017-10-09T04:08:41.182Z,1005.79
2017-10-09T04:09:41.181Z,1005.78
2017-10-09T04:10:41.173Z,1005.74
2017-10-09T04:11:41.164Z,1005.80
2017-10-09T04:12:41.157Z,1005.78
2017-10-09T04:13:41.436Z,1005.81
2017-10-09T04:14:41.134Z,1005.78
2017-10-09T04:15:41.130Z,1005.81
2017-10-09T04:16:41.107Z,1005.80
2017-10-09T04:17:41.097Z,1005.82
2017-10-09T04:18:41.123Z,1005.80
2017-10-09T04:19:41.237Z,1005.78
2017-10-09T04:20:41.076Z,1005.79
2017-10-09T04:21:41.069Z,1005.74
2017-10-09T04:22:41.061Z,1005.78
2017-10-09T04:23:41.051Z,1005.80
2017-10-09T04:24:41.046Z,1005.78
2017-10-09T04:25:41.340Z,1005.77
2017-10-09T04:26:41.017Z,1005.75
2017-10-09T04:27:41.009Z,1005.77
2017-10-09T04:28:41.017Z,1005.75
2017-10-09T04:29:41.001Z,1005.80
2017-10-09T04:30:40.975Z,1005.79
2017-10-09T04:31:41.324Z,1005.77
2017-10-09T04:32:40.971Z,1005.76
2017-10-09T04:33:40.950Z,1005.78
2017-10-09T04:34:40.953Z,1005.77
2017-10-09T04:35:40.944Z,1005.80
2017-10-09T04:36:40.922Z,1005.77
2017-10-09T04:37:40.960Z,1005.78
2017-10-09T04:38:40.925Z,1005.75
2017-10-09T04:39:40.908Z,1005.76
2017-10-09T04:40:40.884Z,1005.75
2017-10-09T04:41:40.891Z,1005.74
2017-10-09T04:42:40.873Z,1005.75
2017-10-09T04:43:41.000Z,1005.75
2017-10-09T04:44:40.857Z,1005.78
2017-10-09T04:45:40.851Z,1005.77
2017-10-09T04:46:40.830Z,1005.77
2017-10-09T04:47:40.832Z,1005.78
2017-10-09T04:48:40.807Z,1005.80
2017-10-09T04:49:41.238Z,1005.80
2017-10-09T04:50:40.801Z,1005.75
2017-10-09T04:51:40.788Z,1005.78
2017-10-09T04:52:40.781Z,1005.79
2017-10-09T04:53:40.762Z,1005.73
2017-10-09T04:54:40.768Z,1005.77
2017-10-09T04:55:41.053Z,1005.76
2017-10-09T04:56:40.733Z,1005.73
2017-10-09T04:57:40.736Z,1005.74
2017-10-09T04:58:40.729Z,1005.75
2017-10-09T04:59:40.712Z,1005.72
2017-10-09T05:00:40.709Z,1005.70
2017-10-09T05:01:40.819Z,1005.72
2017-10-09T05:02:40.685Z,1005.73
2017-10-09T05:03:40.681Z,1005.74
2017-10-09T05:04:40.660Z,1005.75
2017-10-09T05:05:40.661Z,1005.74
2017-10-09T05:06:40.647Z,1005.76
2017-10-09T05:07:41.102Z,1005.74
2017-10-09T05:08:40.624Z,1005.75
2017-10-09T05:09:40.614Z,1005.74
2017-10-09T05:10:40.620Z,1005.71
2017-10-09T05:11:40.608Z,1005.70
2017-10-09T05:12:40.600Z,1005.69
2017-10-09T05:13:40.718Z,1005.64
2017-10-09T05:14:40.573Z,1005.65
2017-10-09T05:15:40.571Z,1005.63
2017-10-09T05:16:40.570Z,1005.66
2017-10-09T05:17:40.555Z,1005.68
2017-10-09T05:18:40.537Z,1005.65
2017-10-09T05:19:40.838Z,1005.67
2017-10-09T05:20:40.523Z,1005.68
2017-10-09T05:21:40.500Z,1005.67
2017-10-09T05:22:40.490Z,1005.62
2017-10-09T05:23:40.485Z,1005.64
2017-10-09T05:24:40.474Z,1005.59
2017-10-09T05:25:40.786Z,1005.62
2017-10-09T05:26:40.471Z,1005.60
2017-10-09T05:27:40.461Z,1005.60
2017-10-09T05:28:40.439Z,1005.63
2017-10-09T05:29:40.442Z,1005.61
2017-10-09T05:30:40.417Z,1005.59
2017-10-09T05:31:40.768Z,1005.61
2017-10-09T05:32:40.397Z,1005.57
2017-10-09T05:33:40.399Z,1005.60
2017-10-09T05:34:40.392Z,1005.57
2017-10-09T05:35:40.385Z,1005.57
2017-10-09T05:36:40.377Z,1005.59
2017-10-09T05:37:40.429Z,1005.58
2017-10-09T05:38:40.339Z,1005.60
2017-10-09T05:39:40.336Z,1005.59
2017-10-09T05:40:40.327Z,1005.58
2017-10-09T05:41:40.321Z,1005.57
2017-10-09T05:42:40.315Z,1005.58
2017-10-09T05:43:40.612Z,1005.56
2017-10-09T05:44:40.301Z,1005.53
2017-10-09T05:45:40.292Z,1005.55
2017-10-09T05:46:40.279Z,1005.55
2017-10-09T05:47:40.261Z,1005.60
2017-10-09T05:48:40.264Z,1005.59
2017-10-09T05:49:40.539Z,1005.59
2017-10-09T05:50:40.244Z,1005.61
2017-10-09T05:51:40.221Z,1005.62
2017-10-09T05:52:40.218Z,1005.65
2017-10-09T05:53:40.217Z,1005.66
2017-10-09T05:54:40.207Z,1005.67
2017-10-09T05:55:40.555Z,1005.71
2017-10-09T05:56:40.174Z,1005.68
2017-10-09T05:57:40.161Z,1005.68
2017-10-09T05:58:40.170Z,1005.67
2017-10-09T05:59:40.162Z,1005.70
2017-10-09T06:00:40.141Z,1005.67
2017-10-09T06:01:40.525Z,1005.64
2017-10-09T06:02:40.120Z,1005.66
2017-10-09T06:03:40.110Z,1005.69
2017-10-09T06:04:40.102Z,1005.65
2017-10-09T06:05:40.092Z,1005.72
2017-10-09T06:06:40.087Z,1005.71
2017-10-09T06:07:40.113Z,1005.71
2017-10-09T06:08:40.072Z,1005.70
2017-10-09T06:09:40.067Z,1005.70
2017-10-09T06:10:40.466Z,1005.73
2017-10-09T06:11:40.034Z,1005.74
2017-10-09T06:12:40.040Z,1005.70
2017-10-09T06:13:40.019Z,1005.72
2017-10-09T06:14:40.001Z,1005.73
2017-10-09T06:15:40.010Z,1005.71
2017-10-09T06:16:40.031Z,1005.71
2017-10-09T06:17:39.988Z,1005.68
2017-10-09T06:18:39.980Z,1005.70
2017-10-09T06:19:39.973Z,1005.68
2017-10-09T06:20:40.000Z,1005.73
2017-10-09T06:21:39.942Z,1005.72
2017-10-09T06:22:39.940Z,1005.73
2017-10-09T06:23:39.936Z,1005.72
2017-10-09T06:24:39.914Z,1005.71
2017-10-09T06:25:39.916Z,1005.68
2017-10-09T06:26:40.354Z,1005.69
2017-10-09T06:27:39.888Z,1005.69
2017-10-09T06:28:39.874Z,1005.71
2017-10-09T06:29:39.888Z,1005.70
2017-10-09T06:30:39.858Z,1005.70
2017-10-09T06:31:39.853Z,1005.73
2017-10-09T06:32:39.875Z,1005.74
2017-10-09T06:33:39.840Z,1005.71
2017-10-09T06:34:39.832Z,1005.73
2017-10-09T06:35:40.177Z,1005.71
2017-10-09T06:36:39.800Z,1005.72
2017-10-09T06:37:39.792Z,1005.72
2017-10-09T06:38:39.789Z,1005.70
2017-10-09T06:39:39.775Z,1005.71
2017-10-09T06:40:39.775Z,1005.70
2017-10-09T06:41:39.781Z,1005.71
2017-10-09T06:42:39.758Z,1005.73
2017-10-09T06:43:39.736Z,1005.71
2017-10-09T06:44:39.728Z,1005.71
2017-10-09T06:45:39.714Z,1005.69
2017-10-09T06:46:39.768Z,1005.72
2017-10-09T06:47:39.701Z,1005.72
2017-10-09T06:48:39.701Z,1005.71
2017-10-09T06:49:39.690Z,1005.72
2017-10-09T06:50:39.686Z,1005.68
2017-10-09T06:51:39.658Z,1005.72
2017-10-09T06:52:40.062Z,1005.69
2017-10-09T06:53:39.649Z,1005.71
2017-10-09T06:54:39.635Z,1005.71
2017-10-09T06:55:39.628Z,1005.71
2017-10-09T06:56:39.618Z,1005.74
2017-10-09T06:57:39.616Z,1005.75
2017-10-09T06:58:39.948Z,1005.78
2017-10-09T06:59:39.595Z,1005.85
2017-10-09T07:00:39.578Z,1005.83
2017-10-09T07:01:39.564Z,1005.79
2017-10-09T07:02:39.558Z,1005.81
2017-10-09T07:03:39.553Z,1005.86
2017-10-09T07:04:39.672Z,1005.84
2017-10-09T07:05:39.537Z,1005.87
2017-10-09T07:06:39.517Z,1005.90
2017-10-09T07:07:39.510Z,1005.88
2017-10-09T07:08:39.514Z,1005.88
2017-10-09T07:09:39.495Z,1005.89
2017-10-09T07:10:39.843Z,1005.92
2017-10-09T07:11:39.480Z,1005.91
2017-10-09T07:12:39.466Z,1005.91
2017-10-09T07:13:39.452Z,1005.87
2017-10-09T07:14:39.453Z,1005.94
2017-10-09T07:15:39.447Z,1005.90
2017-10-09T07:16:39.797Z,1005.95
2017-10-09T07:17:39.436Z,1005.94
2017-10-09T07:18:39.418Z,1005.92
2017-10-09T07:19:39.412Z,1005.88
2017-10-09T07:20:39.387Z,1005.88
2017-10-09T07:21:39.397Z,1005.93
2017-10-09T07:22:39.721Z,1005.92
2017-10-09T07:23:39.363Z,1005.95
2017-10-09T07:24:39.347Z,1005.97
2017-10-09T07:25:39.355Z,1005.98
2017-10-09T07:26:39.345Z,1005.98
2017-10-09T07:27:39.322Z,1005.99
2017-10-09T07:28:39.349Z,1005.98
2017-10-09T07:29:39.317Z,1006.01
2017-10-09T07:30:39.295Z,1006.03
2017-10-09T07:31:39.298Z,1005.98
2017-10-09T07:32:39.314Z,1005.99
2017-10-09T07:33:39.264Z,1005.97
2017-10-09T07:34:39.269Z,1005.96
2017-10-09T07:35:39.247Z,1005.98
2017-10-09T07:36:39.244Z,1005.97
2017-10-09T07:37:39.669Z,1005.98
2017-10-09T07:38:39.224Z,1005.99
2017-10-09T07:39:39.217Z,1006.00
2017-10-09T07:40:39.206Z,1005.99
2017-10-09T07:41:39.200Z,1006.03
2017-10-09T07:42:39.191Z,1006.05
2017-10-09T07:43:39.564Z,1006.02
2017-10-09T07:44:39.165Z,1006.05
2017-10-09T07:45:39.162Z,1006.05
2017-10-09T07:46:39.148Z,1006.03
2017-10-09T07:47:39.135Z,1005.99
2017-10-09T07:48:39.126Z,1006.01
2017-10-09T07:49:39.264Z,1006.00
2017-10-09T07:50:39.117Z,1006.04
2017-10-09T07:51:39.096Z,1006.00
2017-10-09T07:52:39.103Z,1006.02
2017-10-09T07:53:39.088Z,1006.06
2017-10-09T07:54:39.084Z,1006.02
2017-10-09T07:55:39.468Z,1006.03
2017-10-09T07:56:39.059Z,1006.04
2017-10-09T07:57:39.039Z,1006.02
2017-10-09T07:58:39.032Z,1006.05
2017-10-09T07:59:39.034Z,1006.06
2017-10-09T08:00:39.032Z,1006.03
2017-10-09T08:01:39.036Z,1005.99
2017-10-09T08:02:39.142Z,1006.02
2017-10-09T08:03:38.999Z,1006.04
2017-10-09T08:04:38.974Z,1005.99
2017-10-09T08:05:38.979Z,1005.98
2017-10-09T08:06:38.955Z,1005.99
2017-10-09T08:07:38.948Z,1005.97
2017-10-09T08:08:39.241Z,1006.01
2017-10-09T08:09:38.950Z,1006.02
2017-10-09T08:10:38.923Z,1005.99
2017-10-09T08:11:38.911Z,1005.97
2017-10-09T08:12:38.913Z,1005.95
2017-10-09T08:13:38.897Z,1005.99
2017-10-09T08:14:39.227Z,1005.96
2017-10-09T08:15:38.878Z,1006.01
2017-10-09T08:16:38.863Z,1006.01
2017-10-09T08:17:38.877Z,1006.00
2017-10-09T08:18:38.856Z,1006.02
2017-10-09T08:19:38.836Z,1006.00
2017-10-09T08:20:38.867Z,1005.99
2017-10-09T08:21:38.818Z,1005.99
2017-10-09T08:22:38.821Z,1005.98
2017-10-09T08:23:39.199Z,1006.01
2017-10-09T08:24:38.800Z,1006.03
2017-10-09T08:25:38.783Z,1006.02
2017-10-09T08:26:38.785Z,1006.04
2017-10-09T08:27:38.760Z,1006.07
2017-10-09T08:28:38.762Z,1005.98
2017-10-09T08:29:38.797Z,1006.01
2017-10-09T08:30:38.745Z,1006.03
2017-10-09T08:31:38.722Z,1006.04
2017-10-09T08:32:38.729Z,1006.05
2017-10-09T08:33:38.701Z,1006.04
2017-10-09T08:34:38.693Z,1006.04
2017-10-09T08:35:39.084Z,1006.05
2017-10-09T08:36:38.676Z,1006.05
2017-10-09T08:37:38.677Z,1006.04
2017-10-09T08:38:38.658Z,1006.05
2017-10-09T08:39:38.651Z,1006.05
2017-10-09T08:40:38.653Z,1006.01
2017-10-09T08:41:38.750Z,1006.04
2017-10-09T08:42:38.632Z,1006.04
2017-10-09T08:43:38.621Z,1006.04
2017-10-09T08:44:38.617Z,1006.05
2017-10-09T08:45:38.609Z,1006.03
2017-10-09T08:46:38.596Z,1006.01
2017-10-09T08:47:38.628Z,1006.01
2017-10-09T08:48:38.615Z,1006.03
2017-10-09T08:49:38.553Z,1005.98
2017-10-09T08:50:38.545Z,1006.03
2017-10-09T08:51:38.537Z,1006.06
2017-10-09T08:52:38.530Z,1006.05
2017-10-09T08:53:38.528Z,1006.03
2017-10-09T08:54:38.541Z,1006.05
2017-10-09T08:55:38.509Z,1006.05
2017-10-09T08:56:38.498Z,1006.06
2017-10-09T08:57:38.482Z,1006.06
2017-10-09T08:58:38.783Z,1006.05
2017-10-09T08:59:38.464Z,1006.03
2017-10-09T09:00:38.463Z,1006.06
2017-10-09T09:01:38.444Z,1005.99
2017-10-09T09:02:38.442Z,1006.03
2017-10-09T09:03:38.422Z,1006.01
2017-10-09T09:04:38.768Z,1006.00
2017-10-09T09:05:38.406Z,1006.00
2017-10-09T09:06:38.403Z,1006.00
2017-10-09T09:07:38.399Z,1006.01
2017-10-09T09:08:38.381Z,1006.00
2017-10-09T09:09:38.378Z,1006.04
2017-10-09T09:10:38.391Z,1006.09
2017-10-09T09:11:38.365Z,1006.08
2017-10-09T09:12:38.347Z,1006.02
2017-10-09T09:13:38.723Z,1006.04
2017-10-09T09:14:38.323Z,1006.02
2017-10-09T09:15:38.322Z,1006.05
2017-10-09T09:16:38.314Z,1006.02
2017-10-09T09:17:38.311Z,1005.99
2017-10-09T09:18:38.301Z,1006.03
2017-10-09T09:19:38.661Z,1006.01
2017-10-09T09:20:38.270Z,1006.05
2017-10-09T09:21:38.256Z,1005.98
2017-10-09T09:22:38.250Z,1006.00
2017-10-09T09:23:38.247Z,1006.02
2017-10-09T09:24:38.230Z,1006.01
2017-10-09T09:25:38.578Z,1006.04
2017-10-09T09:26:38.209Z,1006.01
2017-10-09T09:27:38.200Z,1006.02
2017-10-09T09:28:38.205Z,1006.03
2017-10-09T09:29:38.194Z,1006.06
2017-10-09T09:30:38.186Z,1006.00
2017-10-09T09:31:38.525Z,1006.02
2017-10-09T09:32:38.171Z,1006.02
2017-10-09T09:33:38.153Z,1005.98
2017-10-09T09:34:38.148Z,1005.97
2017-10-09T09:35:38.126Z,1005.97
2017-10-09T09:36:38.116Z,1005.95
2017-10-09T09:37:38.454Z,1005.96
2017-10-09T09:38:38.097Z,1005.97
2017-10-09T09:39:38.102Z,1005.94
2017-10-09T09:40:38.088Z,1005.92
2017-10-09T09:41:38.082Z,1005.96
2017-10-09T09:42:38.069Z,1005.92
2017-10-09T09:43:38.495Z,1005.92
2017-10-09T09:44:38.041Z,1005.94
2017-10-09T09:45:38.034Z,1005.92
2017-10-09T09:46:38.033Z,1005.91
2017-10-09T09:47:38.027Z,1005.88
2017-10-09T09:48:38.014Z,1005.89
2017-10-09T09:49:38.370Z,1005.86
2017-10-09T09:50:37.996Z,1005.85
2017-10-09T09:51:37.992Z,1005.87
2017-10-09T09:52:37.967Z,1005.89
2017-10-09T09:53:37.961Z,1005.85
2017-10-09T09:54:37.959Z,1005.86
2017-10-09T09:55:38.271Z,1005.86
2017-10-09T09:56:37.940Z,1005.85
2017-10-09T09:57:37.918Z,1005.85
2017-10-09T09:58:37.918Z,1005.84
2017-10-09T09:59:37.915Z,1005.87
2017-10-09T10:00:37.904Z,1005.85
2017-10-09T10:01:38.207Z,1005.87
2017-10-09T10:02:37.884Z,1005.87
2017-10-09T10:03:37.864Z,1005.85
2017-10-09T10:04:37.850Z,1005.85
2017-10-09T10:05:37.856Z,1005.84
2017-10-09T10:06:37.844Z,1005.88
2017-10-09T10:07:38.257Z,1005.86
2017-10-09T10:08:37.829Z,1005.87
2017-10-09T10:09:37.819Z,1005.92
2017-10-09T10:10:37.812Z,1005.88
2017-10-09T10:11:37.807Z,1005.91
2017-10-09T10:12:37.780Z,1005.91
2017-10-09T10:13:38.160Z,1005.95
2017-10-09T10:14:37.762Z,1005.92
2017-10-09T10:15:37.750Z,1005.93
2017-10-09T10:16:37.757Z,1005.93
2017-10-09T10:17:37.732Z,1005.93
2017-10-09T10:18:37.737Z,1005.96
2017-10-09T10:19:37.742Z,1005.94
2017-10-09T10:20:37.707Z,1005.93
2017-10-09T10:21:37.707Z,1005.91
2017-10-09T10:22:37.711Z,1005.93
2017-10-09T10:23:37.676Z,1005.94
2017-10-09T10:24:37.681Z,1005.96
2017-10-09T10:25:38.154Z,1005.97
2017-10-09T10:26:37.662Z,1005.97
2017-10-09T10:27:37.650Z,1005.97
2017-10-09T10:28:37.646Z,1005.97
2017-10-09T10:29:37.631Z,1005.93
2017-10-09T10:30:37.624Z,1005.99
2017-10-09T10:31:37.978Z,1005.98
2017-10-09T10:32:37.594Z,1005.94
2017-10-09T10:33:37.591Z,1005.94
2017-10-09T10:34:37.575Z,1005.94
2017-10-09T10:35:37.577Z,1005.92
2017-10-09T10:36:37.566Z,1005.94
2017-10-09T10:37:37.658Z,1005.91
2017-10-09T10:38:37.548Z,1005.90
2017-10-09T10:39:37.538Z,1005.84
2017-10-09T10:40:37.517Z,1005.82
2017-10-09T10:41:37.515Z,1005.84
2017-10-09T10:42:37.502Z,1005.85
2017-10-09T10:43:37.804Z,1005.83
2017-10-09T10:44:37.496Z,1005.84
2017-10-09T10:45:37.478Z,1005.80
2017-10-09T10:46:37.464Z,1005.83
2017-10-09T10:47:37.454Z,1005.82
2017-10-09T10:48:37.445Z,1005.81
2017-10-09T10:49:37.506Z,1005.78
2017-10-09T10:50:37.437Z,1005.76
2017-10-09T10:51:37.431Z,1005.78
2017-10-09T10:52:37.416Z,1005.79
2017-10-09T10:53:37.399Z,1005.81
2017-10-09T10:54:37.393Z,1005.78
2017-10-09T10:55:37.692Z,1005.74
2017-10-09T10:56:37.388Z,1005.74
2017-10-09T10:57:37.362Z,1005.73
2017-10-09T10:58:37.358Z,1005.73
2017-10-09T10:59:37.344Z,1005.71
2017-10-09T11:00:37.335Z,1005.74
2017-10-09T11:01:37.362Z,1005.72
2017-10-09T11:02:37.320Z,1005.73
2017-10-09T11:03:37.320Z,1005.71
2017-10-09T11:04:37.301Z,1005.69
2017-10-09T11:05:37.737Z,1005.68
2017-10-09T11:06:37.282Z,1005.66
2017-10-09T11:07:37.266Z,1005.61
2017-10-09T11:08:37.273Z,1005.66
2017-10-09T11:09:37.256Z,1005.62
2017-10-09T11:10:37.257Z,1005.65
2017-10-09T11:11:37.596Z,1005.62
2017-10-09T11:12:37.239Z,1005.56
2017-10-09T11:13:37.215Z,1005.58
2017-10-09T11:14:37.208Z,1005.53
2017-10-09T11:15:37.204Z,1005.54
2017-10-09T11:16:37.193Z,1005.51
2017-10-09T11:17:37.555Z,1005.50
2017-10-09T11:18:37.182Z,1005.49
2017-10-09T11:19:37.163Z,1005.48
2017-10-09T11:20:37.157Z,1005.48
2017-10-09T11:21:37.161Z,1005.46
2017-10-09T11:22:37.132Z,1005.44
2017-10-09T11:23:37.297Z,1005.43
2017-10-09T11:24:37.113Z,1005.39
2017-10-09T11:25:37.119Z,1005.33
2017-10-09T11:26:37.095Z,1005.36
2017-10-09T11:27:37.100Z,1005.33
2017-10-09T11:28:37.077Z,1005.34
2017-10-09T11:29:37.431Z,1005.29
2017-10-09T11:30:37.057Z,1005.32
2017-10-09T11:31:37.062Z,1005.31
2017-10-09T11:32:37.041Z,1005.27
2017-10-09T11:33:37.030Z,1005.26
2017-10-09T11:34:37.031Z,1005.27
2017-10-09T11:35:37.346Z,1005.25
2017-10-09T11:36:37.013Z,1005.22
2017-10-09T11:37:37.006Z,1005.26
2017-10-09T11:38:37.000Z,1005.26
2017-10-09T11:39:36.989Z,1005.23
2017-10-09T11:40:36.964Z,1005.26
2017-10-09T11:41:37.266Z,1005.23
2017-10-09T11:42:36.959Z,1005.22
2017-10-09T11:43:36.940Z,1005.21
2017-10-09T11:44:36.941Z,1005.20
2017-10-09T11:45:36.919Z,1005.19
2017-10-09T11:46:36.909Z,1005.15
2017-10-09T11:47:36.943Z,1005.14
2017-10-09T11:48:36.901Z,1005.12
2017-10-09T11:49:36.889Z,1005.09
2017-10-09T11:50:36.873Z,1005.12
2017-10-09T11:51:37.259Z,1005.13
2017-10-09T11:52:36.880Z,1005.09
2017-10-09T11:53:36.862Z,1005.12
2017-10-09T11:54:36.840Z,1005.13
2017-10-09T11:55:36.835Z,1005.10
2017-10-09T11:56:36.834Z,1005.11
2017-10-09T11:57:36.857Z,1005.14
2017-10-09T11:58:36.803Z,1005.10
2017-10-09T11:59:36.801Z,1005.09
2017-10-09T12:00:36.798Z,1005.09
2017-10-09T12:01:36.794Z,1005.09
2017-10-09T12:02:37.083Z,1005.08
2017-10-09T12:03:36.752Z,1005.10
2017-10-09T12:04:36.749Z,1005.08
2017-10-09T12:05:36.732Z,1005.09